This is the latest recevied weather packets stored in our database for station/object DM1RG-6. If no packets are shown the sender has not sent any weather packets the latest 10 day(s).
| Time | Temp. | Humidity | Pressure | Rain* | Wind** | Luminosity | Snow |
|---|---|---|---|---|---|---|---|
| 1777778643 | 13.33° C | 60% | 1013.2 hPa | 0 mm | - | - | - |
| 1777778283 | 13.33° C | 60% | 1013 hPa | 0 mm | - | - | - |
| 1777777923 | 13.33° C | 60% | 1013.1 hPa | 0 mm | - | - | - |
| 1777777564 | 13.33° C | 61% | 1013.4 hPa | 0 mm | - | - | - |
| 1777777203 | 13.33° C | 60% | 1013 hPa | 0 mm | - | - | - |
| 1777776843 | 13.33° C | 60% | 1013.3 hPa | 0 mm | - | - | - |
| 1777776483 | 13.33° C | 59% | 1013.4 hPa | 0 mm | - | - | - |
| 1777776125 | 13.89° C | 58% | 1013.4 hPa | 0 mm | - | - | - |
| 1777775763 | 14.44° C | 57% | 1013.2 hPa | 0 mm | - | - | - |
| 1777775043 | 14.44° C | 57% | 1013.5 hPa | 0 mm | - | - | - |
| 1777774684 | 14.44° C | 57% | 1013.2 hPa | 0 mm | - | - | - |
| 1777774323 | 14.44° C | 57% | 1013.3 hPa | 0 mm | - | - | - |
| 1777773963 | 14.44° C | 58% | 1013.3 hPa | 0 mm | - | - | - |
| 1777770724 | 14.44° C | 56% | 1013.6 hPa | 0 mm | - | - | - |
| 1777769284 | 15° C | 54% | 1013.5 hPa | 0 mm | - | - | - |
| 1777767484 | 14.44° C | 58% | 1014 hPa | 0 mm | - | - | - |
| 1777767123 | 14.44° C | 60% | 1013.8 hPa | 0 mm | - | - | - |
| 1777765323 | 12.22° C | 67% | 1014.2 hPa | 0 mm | - | - | - |
| 1777764604 | 11.11° C | 71% | 1014.3 hPa | 0 mm | - | - | - |
| 1777763883 | 10.56° C | 74% | 1014.3 hPa | 0 mm | - | - | - |
| 1777761363 | 11.11° C | 75% | 1014.7 hPa | 0 mm | - | - | - |
| 1777760644 | 11.11° C | 76% | 1014.7 hPa | 0 mm | - | - | - |
| 1777759924 | 11.67° C | 75% | 1014.7 hPa | 0 mm | - | - | - |
| 1777759564 | 11.67° C | 77% | 1014.8 hPa | 0 mm | - | - | - |
| 1777758843 | 11.67° C | 77% | 1014.7 hPa | 0 mm | - | - | - |
* Rain latest hour (hover to see other rain measurements)
** Current wind speed in m/s (hover to see current wind gust speed)